Joppa, Illinois
Current Conditions -  °F | °C
As of 2:55 PM on Thursday 23 Oct 2014 (Local Time) from KM30 Reporting Station
Clear Clear  
Wind Chill: 60°   Ceiling: Unl
Heat Index: 60°   Visibility: 10mi
Dew Point: 44°   Wind: 0mph
Humidity: 57%   Direction: NA
Pressure: 30.15"   Gusts: NA
Location:  37.21°N, 88.84°W
Report Text: KM30 231955Z AUTO 00000KT 10SM CLR 15/07 A3015 RMK AO2 T01530068
Loading
Personal Weather Stations






























Interactive Weather Map
Tropical Storm Tracking
New forecast layout! Learn more

10-Day Weather Forecast

Advertisements
Track Severe Weather on mobile